createdAt,value
2018-12-22T00:01:12.287Z,0.80
2018-12-22T00:03:39.432Z,0.60
2018-12-22T00:06:06.587Z,0.60
2018-12-22T00:08:33.792Z,0.60
2018-12-22T00:11:00.963Z,0.70
2018-12-22T00:13:28.225Z,0.60
2018-12-22T00:15:55.403Z,0.80
2018-12-22T00:18:22.584Z,0.90
2018-12-22T00:20:49.739Z,0.70
2018-12-22T00:23:16.925Z,0.80
2018-12-22T00:25:44.117Z,0.80
2018-12-22T00:28:11.253Z,0.77
2018-12-22T00:30:38.419Z,0.80
2018-12-22T00:33:05.690Z,0.80
2018-12-22T00:35:32.815Z,0.70
2018-12-22T00:38:00.001Z,0.70
2018-12-22T00:40:27.148Z,0.80
2018-12-22T00:42:54.303Z,0.80
2018-12-22T00:45:21.448Z,0.70
2018-12-22T00:47:48.620Z,0.80
2018-12-22T00:50:15.988Z,0.98
2018-12-22T00:52:43.144Z,0.90
2018-12-22T00:55:10.432Z,0.80
2018-12-22T00:57:37.709Z,0.78
2018-12-22T01:00:05.989Z,0.65
2018-12-22T01:02:33.266Z,0.80
2018-12-22T01:05:00.404Z,0.83
2018-12-22T01:07:27.558Z,0.77
2018-12-22T01:09:54.827Z,0.70
2018-12-22T01:12:21.985Z,0.80
2018-12-22T01:14:49.388Z,0.70
2018-12-22T01:17:16.676Z,0.78
2018-12-22T01:19:43.827Z,0.70
2018-12-22T01:22:10.992Z,0.80
2018-12-22T01:24:38.263Z,0.95
2018-12-22T01:27:05.445Z,0.80
2018-12-22T01:29:32.858Z,0.80
2018-12-22T01:32:00.103Z,0.93
2018-12-22T01:34:27.352Z,0.80
2018-12-22T01:36:54.879Z,0.93
2018-12-22T01:39:22.139Z,0.90
2018-12-22T01:41:49.417Z,0.95
2018-12-22T01:44:16.596Z,0.85
2018-12-22T01:46:43.764Z,0.72
2018-12-22T01:49:11.071Z,1.10
2018-12-22T01:51:38.269Z,1.10
2018-12-22T01:54:12.299Z,0.70
2018-12-22T01:56:39.685Z,0.80
2018-12-22T01:59:06.847Z,0.87
2018-12-22T02:01:34.008Z,0.65
2018-12-22T02:04:01.304Z,0.70
2018-12-22T02:06:28.463Z,0.80
2018-12-22T02:08:55.624Z,1.10
2018-12-22T02:11:22.767Z,0.80
2018-12-22T02:13:49.944Z,0.70
2018-12-22T02:16:17.205Z,0.62
2018-12-22T02:18:44.352Z,0.70
2018-12-22T02:21:11.525Z,0.80
2018-12-22T02:23:38.685Z,0.63
2018-12-22T02:26:05.875Z,0.70
2018-12-22T02:28:33.031Z,0.75
2018-12-22T02:31:00.229Z,0.80
2018-12-22T02:33:27.641Z,0.90
2018-12-22T02:35:54.873Z,0.70
2018-12-22T02:38:22.033Z,0.77
2018-12-22T02:40:49.186Z,0.80
2018-12-22T02:43:16.356Z,0.62
2018-12-22T02:45:43.817Z,0.80
2018-12-22T02:48:10.991Z,0.73
2018-12-22T02:50:38.247Z,0.70
2018-12-22T02:53:05.376Z,0.90
2018-12-22T02:55:32.561Z,0.70
2018-12-22T02:57:59.845Z,1.00
2018-12-22T03:00:27.063Z,0.80
2018-12-22T03:02:54.459Z,0.80
2018-12-22T03:05:21.740Z,0.80
2018-12-22T03:07:48.993Z,0.70
2018-12-22T03:10:16.187Z,0.70
2018-12-22T03:12:43.487Z,0.70
2018-12-22T03:15:10.738Z,0.83
2018-12-22T03:17:37.948Z,0.68
2018-12-22T03:20:05.344Z,0.80
2018-12-22T03:22:32.495Z,0.70
2018-12-22T03:24:59.764Z,0.80
2018-12-22T03:27:26.883Z,0.80
2018-12-22T03:29:54.059Z,0.70
2018-12-22T03:32:21.220Z,0.87
2018-12-22T03:34:48.402Z,0.62
2018-12-22T03:37:15.564Z,0.90
2018-12-22T03:39:42.831Z,0.80
2018-12-22T03:42:10.036Z,0.60
2018-12-22T03:44:37.155Z,0.73
2018-12-22T03:47:04.370Z,0.70
2018-12-22T03:49:31.512Z,0.65
2018-12-22T03:51:58.876Z,0.70
2018-12-22T03:54:26.199Z,0.90
2018-12-22T03:56:53.584Z,0.73
2018-12-22T03:59:24.973Z,0.80
2018-12-22T04:01:50.043Z,0.80
2018-12-22T04:04:17.155Z,0.60
2018-12-22T04:06:44.317Z,0.70
2018-12-22T04:09:11.515Z,0.80
2018-12-22T04:11:38.864Z,0.78
2018-12-22T04:14:06.132Z,0.83
2018-12-22T04:16:33.414Z,0.80
2018-12-22T04:19:00.759Z,0.80
2018-12-22T04:21:28.060Z,0.88
2018-12-22T04:23:55.255Z,0.90
2018-12-22T04:26:22.429Z,1.10
2018-12-22T04:28:49.745Z,0.80
2018-12-22T04:31:16.889Z,0.87
2018-12-22T04:33:44.175Z,0.80
2018-12-22T04:36:11.407Z,0.90
2018-12-22T04:38:38.900Z,1.10
2018-12-22T04:41:06.049Z,0.88
2018-12-22T04:43:33.328Z,0.80
2018-12-22T04:46:00.593Z,1.10
2018-12-22T04:48:27.830Z,1.20
2018-12-22T04:50:55.016Z,1.20
2018-12-22T04:53:22.308Z,1.10
2018-12-22T04:55:49.439Z,1.10
2018-12-22T04:58:16.605Z,0.93
2018-12-22T05:00:44.025Z,1.00
2018-12-22T05:03:11.156Z,1.10
2018-12-22T05:05:38.393Z,1.17
2018-12-22T05:08:05.545Z,1.10
2018-12-22T05:10:32.764Z,1.10
2018-12-22T05:13:00.044Z,1.30
2018-12-22T05:15:27.199Z,1.37
2018-12-22T05:17:54.327Z,1.00
2018-12-22T05:20:21.747Z,1.10
2018-12-22T05:22:48.904Z,1.03
2018-12-22T05:25:16.487Z,0.70
2018-12-22T05:27:43.637Z,0.97
2018-12-22T05:30:11.099Z,0.90
2018-12-22T05:32:38.251Z,0.70
2018-12-22T05:35:05.630Z,0.75
2018-12-22T05:37:32.769Z,0.60
2018-12-22T05:39:59.967Z,0.70
2018-12-22T05:42:27.215Z,0.70
2018-12-22T05:44:54.515Z,0.50
2018-12-22T05:47:21.899Z,0.63
2018-12-22T05:49:49.164Z,0.60
2018-12-22T05:52:16.395Z,0.70
2018-12-22T05:54:43.608Z,0.60
2018-12-22T05:57:10.796Z,0.60
2018-12-22T05:59:38.107Z,0.77
2018-12-22T06:02:05.373Z,0.60
2018-12-22T06:04:32.624Z,0.57
2018-12-22T06:06:59.912Z,0.70
2018-12-22T06:09:27.301Z,0.60
2018-12-22T06:11:54.961Z,0.50
2018-12-22T06:14:22.107Z,0.60
2018-12-22T06:16:49.244Z,0.80
2018-12-22T06:19:16.416Z,0.47
2018-12-22T06:21:43.719Z,0.40
2018-12-22T06:24:11.329Z,0.83
2018-12-22T06:26:38.623Z,0.65
2018-12-22T06:29:05.866Z,0.60
2018-12-22T06:31:33.144Z,0.80
2018-12-22T06:34:00.399Z,0.70
2018-12-22T06:36:27.775Z,0.90
2018-12-22T06:38:54.888Z,0.90
2018-12-22T06:41:22.056Z,1.00
2018-12-22T06:43:49.227Z,1.27
2018-12-22T06:46:16.482Z,1.00
2018-12-22T06:48:43.613Z,1.00
2018-12-22T06:51:10.832Z,1.03
2018-12-22T06:53:38.101Z,1.37
2018-12-22T06:56:05.373Z,0.90
2018-12-22T06:58:32.528Z,0.80
2018-12-22T07:00:59.763Z,0.60
2018-12-22T07:03:26.916Z,0.85
2018-12-22T07:05:54.160Z,0.70
2018-12-22T07:08:21.319Z,0.75
2018-12-22T07:10:48.561Z,0.53
2018-12-22T07:13:15.731Z,0.80
2018-12-22T07:15:42.873Z,0.37
2018-12-22T07:18:10.023Z,0.50
2018-12-22T07:20:37.322Z,0.40
2018-12-22T07:23:04.562Z,0.60
2018-12-22T07:25:31.728Z,0.50
2018-12-22T07:27:58.873Z,0.47
2018-12-22T07:30:26.664Z,0.50
2018-12-22T07:32:57.206Z,0.40
2018-12-22T07:35:23.418Z,0.93
2018-12-22T07:37:50.720Z,0.90
2018-12-22T07:40:18.036Z,2.23
2018-12-22T07:42:46.173Z,1.00
2018-12-22T07:45:13.354Z,1.20
2018-12-22T07:47:40.630Z,0.68
2018-12-22T07:50:07.897Z,0.60
2018-12-22T07:52:35.112Z,0.60
2018-12-22T07:55:02.592Z,0.73
2018-12-22T07:57:29.801Z,0.70
2018-12-22T07:59:57.251Z,0.70
2018-12-22T08:02:24.618Z,0.90
2018-12-22T08:04:52.080Z,0.77
2018-12-22T08:07:19.556Z,0.83
2018-12-22T08:09:46.770Z,0.80
2018-12-22T08:12:13.937Z,0.80
2018-12-22T08:14:41.415Z,0.60
2018-12-22T08:17:08.645Z,0.60
2018-12-22T08:19:35.934Z,0.93
2018-12-22T08:22:03.344Z,0.70
2018-12-22T08:24:43.230Z,0.60
2018-12-22T08:27:10.516Z,0.60
2018-12-22T08:29:37.684Z,0.40
2018-12-22T08:32:05.126Z,0.50
2018-12-22T08:34:33.341Z,0.60
2018-12-22T08:37:00.483Z,0.50
2018-12-22T08:39:27.743Z,0.45
2018-12-22T08:41:55.023Z,0.33
2018-12-22T08:44:22.270Z,0.43
2018-12-22T08:46:49.491Z,0.80
2018-12-22T08:49:16.639Z,0.70
2018-12-22T08:51:43.799Z,0.40
2018-12-22T08:54:11.003Z,0.53
2018-12-22T08:56:38.431Z,0.70
2018-12-22T08:59:05.911Z,0.70
2018-12-22T09:01:33.112Z,4.50
2018-12-22T09:04:01.376Z,1.13
2018-12-22T09:06:28.657Z,0.80
2018-12-22T09:08:55.923Z,0.70
2018-12-22T09:11:23.443Z,0.72
2018-12-22T09:13:50.660Z,0.70
2018-12-22T09:16:18.292Z,0.60
2018-12-22T09:18:45.509Z,1.60
2018-12-22T09:21:12.699Z,0.93
2018-12-22T09:23:39.926Z,0.70
2018-12-22T09:26:08.472Z,0.65
2018-12-22T09:28:35.883Z,0.53
2018-12-22T09:31:03.244Z,0.70
2018-12-22T09:33:30.408Z,0.68
2018-12-22T09:35:57.542Z,0.90
2018-12-22T09:38:24.809Z,0.90
2018-12-22T09:40:51.987Z,0.80
2018-12-22T09:43:19.230Z,0.77
2018-12-22T09:45:46.402Z,0.90
2018-12-22T09:48:13.543Z,1.00
2018-12-22T09:50:40.704Z,1.00
2018-12-22T09:53:09.966Z,1.20
2018-12-22T09:55:37.299Z,1.40
2018-12-22T09:58:04.613Z,1.30
2018-12-22T10:00:31.753Z,1.43
2018-12-22T10:02:58.929Z,1.30
2018-12-22T10:05:26.183Z,1.30
2018-12-22T10:07:53.348Z,2.10
2018-12-22T10:10:20.521Z,1.17
2018-12-22T10:12:47.692Z,1.05
2018-12-22T10:15:14.883Z,1.00
2018-12-22T10:17:42.158Z,1.30
2018-12-22T10:20:09.411Z,1.10
2018-12-22T10:22:36.569Z,1.57
2018-12-22T10:25:07.576Z,1.53
2018-12-22T10:27:35.140Z,1.20
2018-12-22T10:30:02.618Z,1.20
2018-12-22T10:32:29.872Z,1.40
2018-12-22T10:34:57.039Z,1.40
2018-12-22T10:37:24.288Z,1.10
2018-12-22T10:39:51.544Z,0.93
2018-12-22T10:42:18.746Z,1.00
2018-12-22T10:44:45.984Z,1.27
2018-12-22T10:47:13.214Z,1.25
2018-12-22T10:49:40.381Z,1.10
2018-12-22T10:52:07.547Z,1.30
2018-12-22T10:54:34.711Z,1.10
2018-12-22T10:57:04.038Z,1.20
2018-12-22T10:59:35.389Z,1.37
2018-12-22T11:02:03.210Z,1.12
2018-12-22T11:04:30.507Z,1.17
2018-12-22T11:06:57.700Z,1.32
2018-12-22T11:09:24.880Z,1.10
2018-12-22T11:11:52.048Z,1.40
2018-12-22T11:14:19.241Z,1.35
2018-12-22T11:16:46.409Z,1.40
2018-12-22T11:19:13.580Z,1.13
2018-12-22T11:21:41.092Z,1.40
2018-12-22T11:24:08.605Z,1.22
2018-12-22T11:26:35.811Z,1.20
2018-12-22T11:29:03.709Z,1.20
2018-12-22T11:31:34.967Z,1.32
2018-12-22T11:34:00.388Z,1.37
2018-12-22T11:36:27.688Z,1.15
2018-12-22T11:38:55.094Z,1.25
2018-12-22T11:41:22.389Z,1.37
2018-12-22T11:43:49.803Z,1.25
2018-12-22T11:46:20.616Z,1.17
2018-12-22T11:49:01.838Z,1.20
2018-12-22T11:51:29.205Z,1.10
2018-12-22T11:53:56.559Z,1.27
2018-12-22T11:56:23.984Z,1.20
2018-12-22T11:58:51.271Z,1.20
2018-12-22T12:01:18.608Z,1.40
2018-12-22T12:03:45.819Z,1.10
2018-12-22T12:06:13.088Z,1.40
2018-12-22T12:08:40.221Z,1.40
2018-12-22T12:11:08.160Z,0.90
2018-12-22T12:13:35.335Z,1.62
2018-12-22T12:16:14.069Z,1.40
2018-12-22T12:18:50.738Z,1.40
2018-12-22T12:21:17.912Z,1.57
2018-12-22T12:23:45.048Z,1.60
2018-12-22T12:26:12.408Z,1.10
2018-12-22T12:28:39.576Z,1.40
2018-12-22T12:31:06.745Z,1.32
2018-12-22T12:33:33.858Z,1.25
2018-12-22T12:36:01.112Z,1.40
2018-12-22T12:38:28.317Z,1.25
2018-12-22T12:40:55.471Z,1.60
2018-12-22T12:43:22.879Z,1.70
2018-12-22T12:45:50.200Z,1.40
2018-12-22T12:48:19.302Z,2.00
2018-12-22T12:50:47.881Z,1.40
2018-12-22T12:53:15.303Z,1.30
2018-12-22T12:55:42.426Z,1.70
2018-12-22T12:58:09.568Z,1.80
2018-12-22T13:00:36.768Z,2.22
2018-12-22T13:03:03.950Z,1.60
2018-12-22T13:05:31.096Z,1.62
2018-12-22T13:07:58.295Z,1.82
2018-12-22T13:10:25.463Z,1.77
2018-12-22T13:12:57.689Z,2.00
2018-12-22T13:15:42.364Z,1.82
2018-12-22T13:18:09.632Z,1.77
2018-12-22T13:20:36.900Z,1.60
2018-12-22T13:23:04.260Z,1.47
2018-12-22T13:25:31.504Z,2.20
2018-12-22T13:27:58.695Z,1.90
2018-12-22T13:30:25.943Z,1.92
2018-12-22T13:32:53.332Z,1.50
2018-12-22T13:35:20.587Z,1.67
2018-12-22T13:37:47.771Z,1.60
2018-12-22T13:40:14.939Z,1.57
2018-12-22T13:42:42.075Z,2.12
2018-12-22T13:45:09.443Z,1.90
2018-12-22T13:47:37.052Z,2.15
2018-12-22T13:50:05.233Z,1.67
2018-12-22T13:52:32.587Z,1.90
2018-12-22T13:54:59.731Z,2.37
2018-12-22T13:57:27.061Z,1.72
2018-12-22T13:59:54.216Z,1.60
2018-12-22T14:02:21.451Z,1.50
2018-12-22T14:04:48.704Z,1.37
2018-12-22T14:07:15.847Z,1.50
2018-12-22T14:09:42.993Z,1.70
2018-12-22T14:12:10.147Z,1.35
2018-12-22T14:14:38.917Z,1.70
2018-12-22T14:17:26.459Z,1.37
2018-12-22T14:19:58.303Z,1.80
2018-12-22T14:22:25.999Z,1.75
2018-12-22T14:24:54.160Z,1.40
2018-12-22T14:27:21.408Z,1.55
2018-12-22T14:29:48.725Z,1.47
2018-12-22T14:32:15.971Z,1.33
2018-12-22T14:35:21.794Z,2.30
2018-12-22T14:37:49.124Z,4.90
2018-12-22T14:40:16.440Z,1.93
2018-12-22T14:42:43.939Z,2.92
2018-12-22T14:45:12.256Z,1.80
2018-12-22T14:47:39.906Z,1.90
2018-12-22T14:50:09.214Z,2.20
2018-12-22T14:52:50.449Z,2.08
2018-12-22T14:55:17.669Z,2.07
2018-12-22T14:57:54.781Z,1.90
2018-12-22T15:00:22.368Z,2.53
2018-12-22T15:02:51.885Z,2.17
2018-12-22T15:05:20.385Z,1.67
2018-12-22T15:07:47.930Z,2.30
2018-12-22T15:10:17.010Z,2.33
2018-12-22T15:12:44.243Z,1.70
2018-12-22T15:15:11.684Z,1.87
2018-12-22T15:17:39.448Z,1.83
2018-12-22T15:20:10.725Z,2.73
2018-12-22T15:22:37.871Z,2.60
2018-12-22T15:25:06.337Z,3.17
2018-12-22T15:27:33.630Z,2.30
2018-12-22T15:30:00.927Z,1.83
2018-12-22T15:32:28.194Z,1.70
2018-12-22T15:34:55.510Z,1.70
2018-12-22T15:37:22.647Z,2.80
2018-12-22T15:39:49.860Z,1.72
2018-12-22T15:42:17.025Z,1.90
2018-12-22T15:44:44.292Z,1.70
2018-12-22T15:47:11.589Z,1.57
2018-12-22T15:49:38.789Z,1.57
2018-12-22T15:52:05.963Z,1.40
2018-12-22T15:54:33.196Z,1.60
2018-12-22T15:57:00.451Z,2.00
2018-12-22T15:59:27.677Z,2.20
2018-12-22T16:01:54.926Z,2.43
2018-12-22T16:04:22.142Z,2.93
2018-12-22T16:06:49.392Z,1.97
2018-12-22T16:09:16.745Z,2.03
2018-12-22T16:11:43.985Z,1.83
2018-12-22T16:14:11.276Z,2.30
2018-12-22T16:16:38.503Z,1.50
2018-12-22T16:19:05.833Z,3.73
2018-12-22T16:21:32.972Z,7.87
2018-12-22T16:24:00.372Z,4.60
2018-12-22T16:26:27.686Z,2.57
2018-12-22T16:29:00.952Z,3.20
2018-12-22T16:31:28.255Z,4.47
2018-12-22T16:33:55.416Z,1.93
2018-12-22T16:36:22.773Z,1.70
2018-12-22T16:38:50.286Z,1.73
2018-12-22T16:41:17.720Z,1.40
2018-12-22T16:43:44.878Z,1.97
2018-12-22T16:46:12.170Z,1.20
2018-12-22T16:48:42.503Z,1.53
2018-12-22T16:51:09.706Z,1.53
2018-12-22T16:53:37.086Z,1.93
2018-12-22T16:56:04.479Z,1.80
2018-12-22T16:58:34.047Z,2.53
2018-12-22T17:01:16.923Z,1.40
2018-12-22T17:03:44.369Z,2.10
2018-12-22T17:06:13.125Z,1.30
2018-12-22T17:08:40.408Z,3.03
2018-12-22T17:11:07.933Z,1.50
2018-12-22T17:13:35.337Z,1.97
2018-12-22T17:16:02.732Z,1.50
2018-12-22T17:18:30.185Z,1.67
2018-12-22T17:21:06.420Z,1.70
2018-12-22T17:23:42.370Z,1.60
2018-12-22T17:26:09.667Z,1.67
2018-12-22T17:28:36.813Z,1.10
2018-12-22T17:31:04.187Z,1.07
2018-12-22T17:33:31.389Z,1.00
2018-12-22T17:35:58.769Z,1.50
2018-12-22T17:38:26.617Z,1.63
2018-12-22T17:40:56.748Z,1.93
2018-12-22T17:43:24.181Z,1.30
2018-12-22T17:45:51.984Z,0.97
2018-12-22T17:48:19.397Z,1.50
2018-12-22T17:50:47.007Z,1.30
2018-12-22T17:53:14.224Z,1.20
2018-12-22T17:55:41.498Z,1.20
2018-12-22T17:58:09.247Z,0.93
2018-12-22T18:00:36.482Z,1.33
2018-12-22T18:03:05.019Z,2.63
2018-12-22T18:05:32.285Z,1.33
2018-12-22T18:07:59.411Z,1.30
2018-12-22T18:10:27.278Z,1.10
2018-12-22T18:12:54.555Z,1.37
2018-12-22T18:15:23.304Z,1.70
2018-12-22T18:17:50.651Z,2.40
2018-12-22T18:20:17.979Z,1.20
2018-12-22T18:22:45.299Z,1.60
2018-12-22T18:25:13.961Z,1.50
2018-12-22T18:27:41.395Z,1.40
2018-12-22T18:30:10.275Z,1.70
2018-12-22T18:32:37.640Z,1.47
2018-12-22T18:35:05.864Z,1.70
2018-12-22T18:37:33.012Z,4.73
2018-12-22T18:40:00.624Z,1.70
2018-12-22T18:42:28.661Z,1.77
2018-12-22T18:44:55.909Z,1.80
2018-12-22T18:47:23.121Z,1.60
2018-12-22T18:49:50.456Z,1.83
2018-12-22T18:52:17.622Z,3.43
2018-12-22T18:54:44.841Z,2.10
2018-12-22T18:57:12.047Z,2.40
2018-12-22T18:59:39.229Z,1.60
2018-12-22T19:02:06.400Z,1.50
2018-12-22T19:04:33.687Z,2.20
2018-12-22T19:07:01.086Z,2.00
2018-12-22T19:09:30.408Z,1.93
2018-12-22T19:11:58.196Z,3.33
2018-12-22T19:14:25.540Z,2.17
2018-12-22T19:16:52.887Z,2.30
2018-12-22T19:19:20.150Z,2.90
2018-12-22T19:21:47.403Z,2.10
2018-12-22T19:24:14.728Z,1.90
2018-12-22T19:26:41.923Z,1.90
2018-12-22T19:29:09.233Z,2.27
2018-12-22T19:31:41.725Z,1.97
2018-12-22T19:34:05.765Z,1.97
2018-12-22T19:36:32.974Z,2.30
2018-12-22T19:39:00.156Z,2.10
2018-12-22T19:41:27.584Z,1.90
2018-12-22T19:43:54.799Z,2.20
2018-12-22T19:46:22.088Z,2.67
2018-12-22T19:48:49.367Z,2.20
2018-12-22T19:51:17.893Z,2.53
2018-12-22T19:53:48.270Z,2.40
2018-12-22T19:56:16.979Z,2.60
2018-12-22T19:59:00.894Z,3.20
2018-12-22T20:01:30.796Z,1.80
2018-12-22T20:04:02.046Z,2.03
2018-12-22T20:06:28.128Z,1.77
2018-12-22T20:12:07.753Z,1.80
2018-12-22T20:17:38.181Z,2.23
2018-12-22T20:20:12.866Z,1.90
2018-12-22T20:22:58.188Z,1.80
2018-12-22T20:25:25.998Z,2.00
2018-12-22T20:27:57.789Z,1.80
2018-12-22T20:30:25.347Z,2.10
2018-12-22T20:33:08.744Z,1.70
2018-12-22T20:35:38.894Z,2.22
2018-12-22T20:38:09.591Z,1.90
2018-12-22T20:40:39.350Z,1.73
2018-12-22T20:43:07.043Z,1.90
2018-12-22T20:45:36.665Z,1.80
2018-12-22T20:48:04.116Z,1.97
2018-12-22T20:50:31.704Z,2.30
2018-12-22T20:52:59.295Z,1.75
2018-12-22T20:55:26.609Z,2.00
2018-12-22T20:57:53.895Z,2.00
2018-12-22T21:02:58.630Z,1.97
2018-12-22T21:05:30.096Z,1.77
2018-12-22T21:07:58.135Z,2.80
2018-12-22T21:10:25.731Z,2.10
2018-12-22T21:12:53.024Z,1.90
2018-12-22T21:15:20.679Z,2.00
2018-12-22T21:17:48.330Z,2.00
2018-12-22T21:20:15.801Z,2.07
2018-12-22T21:22:43.037Z,2.73
2018-12-22T21:25:10.313Z,2.40
2018-12-22T21:27:37.624Z,2.20
2018-12-22T21:30:05.477Z,2.27
2018-12-22T21:32:32.918Z,2.00
2018-12-22T21:35:00.535Z,2.30
2018-12-22T21:37:28.296Z,2.33
2018-12-22T21:39:55.613Z,3.80
2018-12-22T21:42:23.451Z,2.03
2018-12-22T21:44:51.321Z,2.40
2018-12-22T21:47:20.020Z,1.80
2018-12-22T21:49:47.189Z,2.67
2018-12-22T21:52:14.690Z,2.30
2018-12-22T21:54:42.708Z,2.35
2018-12-22T21:57:09.990Z,2.30
2018-12-22T21:59:38.272Z,2.50
2018-12-22T22:02:05.663Z,2.30
2018-12-22T22:04:37.050Z,2.20
2018-12-22T22:07:02.145Z,2.23
2018-12-22T22:09:29.916Z,2.17
2018-12-22T22:11:57.372Z,2.10
2018-12-22T22:14:24.867Z,2.00
2018-12-22T22:16:52.212Z,2.23
2018-12-22T22:19:19.790Z,2.27
2018-12-22T22:21:47.214Z,2.20
2018-12-22T22:24:14.929Z,2.23
2018-12-22T22:26:42.772Z,2.20
2018-12-22T22:29:09.957Z,2.43
2018-12-22T22:31:37.688Z,2.50
2018-12-22T22:34:05.242Z,2.13
2018-12-22T22:36:32.638Z,2.53
2018-12-22T22:39:00.216Z,2.27
2018-12-22T22:41:27.879Z,2.13
2018-12-22T22:43:55.287Z,2.30
2018-12-22T22:46:23.053Z,1.97
2018-12-22T22:48:50.743Z,1.90
2018-12-22T22:51:18.099Z,2.47
2018-12-22T22:53:45.416Z,2.30
2018-12-22T22:56:12.720Z,2.00
2018-12-22T22:58:40.143Z,2.13
2018-12-22T23:01:07.622Z,2.10
2018-12-22T23:03:34.856Z,2.00
2018-12-22T23:06:02.129Z,2.03
2018-12-22T23:08:29.460Z,2.17
2018-12-22T23:10:56.701Z,1.93
2018-12-22T23:13:24.781Z,1.80
2018-12-22T23:15:52.218Z,2.00
2018-12-22T23:18:19.505Z,1.90
2018-12-22T23:20:46.907Z,1.90
2018-12-22T23:23:14.400Z,1.93
2018-12-22T23:25:41.600Z,1.70
2018-12-22T23:28:08.804Z,2.00
2018-12-22T23:30:35.971Z,2.13
2018-12-22T23:33:03.281Z,2.10
2018-12-22T23:35:30.472Z,1.73
2018-12-22T23:37:57.701Z,1.93
2018-12-22T23:40:24.903Z,1.93
2018-12-22T23:42:52.276Z,2.27
2018-12-22T23:45:19.511Z,2.40
2018-12-22T23:47:46.758Z,2.10
2018-12-22T23:50:14.349Z,2.17
2018-12-22T23:52:41.669Z,2.17
2018-12-22T23:55:08.861Z,2.20
2018-12-22T23:57:36.166Z,2.20
